createdAt,value
2019-05-06T00:00:19.020Z,74.46
2019-05-06T00:01:19.009Z,74.91
2019-05-06T00:02:19.022Z,74.29
2019-05-06T00:03:18.986Z,73.68
2019-05-06T00:04:18.978Z,74.71
2019-05-06T00:05:18.967Z,74.80
2019-05-06T00:06:18.956Z,73.26
2019-05-06T00:07:18.965Z,73.78
2019-05-06T00:08:18.929Z,73.78
2019-05-06T00:09:18.921Z,73.26
2019-05-06T00:10:18.907Z,73.36
2019-05-06T00:11:18.897Z,72.85
2019-05-06T00:12:18.911Z,73.26
2019-05-06T00:13:18.874Z,73.57
2019-05-06T00:14:18.867Z,73.36
2019-05-06T00:15:18.851Z,73.26
2019-05-06T00:16:18.845Z,73.16
2019-05-06T00:17:18.832Z,72.37
2019-05-06T00:18:18.842Z,72.96
2019-05-06T00:19:18.804Z,72.58
2019-05-06T00:20:18.796Z,72.67
2019-05-06T00:21:18.785Z,73.40
2019-05-06T00:22:18.776Z,73.91
2019-05-06T00:23:18.783Z,73.81
2019-05-06T00:24:18.747Z,74.02
2019-05-06T00:25:18.751Z,73.50
2019-05-06T00:26:18.726Z,73.40
2019-05-06T00:27:18.714Z,73.50
2019-05-06T00:28:18.727Z,73.50
2019-05-06T00:29:18.692Z,73.71
2019-05-06T00:30:18.680Z,73.81
2019-05-06T00:31:18.673Z,73.71
2019-05-06T00:32:18.656Z,74.63
2019-05-06T00:33:18.679Z,73.81
2019-05-06T00:34:18.636Z,74.12
2019-05-06T00:35:18.622Z,74.02
2019-05-06T00:36:18.613Z,73.81
2019-05-06T00:37:18.603Z,73.60
2019-05-06T00:38:18.617Z,73.91
2019-05-06T00:39:18.577Z,73.30
2019-05-06T00:40:18.567Z,74.02
2019-05-06T00:41:18.556Z,73.71
2019-05-06T00:42:18.543Z,73.74
2019-05-06T00:43:18.560Z,74.02
2019-05-06T00:44:18.520Z,73.81
2019-05-06T00:45:18.509Z,74.02
2019-05-06T00:46:18.504Z,73.22
2019-05-06T00:47:18.488Z,73.81
2019-05-06T00:48:18.504Z,74.12
2019-05-06T00:49:18.465Z,73.95
2019-05-06T00:50:18.462Z,73.95
2019-05-06T00:51:18.443Z,74.26
2019-05-06T00:52:18.438Z,74.77
2019-05-06T00:53:18.448Z,74.98
2019-05-06T00:54:18.412Z,75.01
2019-05-06T00:55:18.398Z,75.53
2019-05-06T00:56:18.388Z,75.43
2019-05-06T00:57:18.378Z,75.63
2019-05-06T00:58:18.390Z,75.95
2019-05-06T00:59:18.356Z,75.74
2019-05-06T01:00:18.376Z,76.04
2019-05-06T01:01:26.980Z,75.53
2019-05-06T01:02:19.318Z,76.25
2019-05-06T01:03:18.343Z,76.67
2019-05-06T01:04:18.299Z,75.74
2019-05-06T01:05:18.288Z,75.95
2019-05-06T01:06:18.273Z,76.29
2019-05-06T01:07:18.265Z,76.70
2019-05-06T01:08:18.276Z,77.42
2019-05-06T01:09:18.238Z,77.42
2019-05-06T01:10:18.228Z,77.53
2019-05-06T01:11:18.219Z,77.53
2019-05-06T01:12:18.204Z,77.32
2019-05-06T01:13:18.197Z,77.22
2019-05-06T01:14:18.211Z,77.53
2019-05-06T01:15:18.173Z,77.22
2019-05-06T01:16:18.161Z,77.53
2019-05-06T01:17:18.150Z,77.42
2019-05-06T01:18:18.148Z,77.28
2019-05-06T01:19:18.153Z,77.53
2019-05-06T01:20:18.114Z,77.32
2019-05-06T01:21:18.103Z,77.11
2019-05-06T01:22:18.092Z,77.22
2019-05-06T01:23:18.086Z,77.32
2019-05-06T01:24:18.094Z,77.01
2019-05-06T01:25:18.067Z,77.32
2019-05-06T01:26:18.049Z,77.53
2019-05-06T01:27:18.037Z,77.73
2019-05-06T01:28:18.024Z,77.63
2019-05-06T01:29:18.038Z,77.63
2019-05-06T01:30:18.003Z,77.94
2019-05-06T01:31:17.993Z,77.53
2019-05-06T01:32:17.983Z,77.63
2019-05-06T01:33:17.971Z,77.42
2019-05-06T01:34:17.982Z,77.53
2019-05-06T01:35:17.953Z,77.53
2019-05-06T01:36:17.936Z,77.22
2019-05-06T01:37:17.923Z,77.32
2019-05-06T01:38:17.913Z,77.63
2019-05-06T01:39:17.930Z,78.14
2019-05-06T01:40:17.897Z,77.87
2019-05-06T01:41:17.881Z,78.25
2019-05-06T01:42:17.869Z,77.73
2019-05-06T01:43:17.860Z,77.46
2019-05-06T01:44:17.872Z,77.73
2019-05-06T01:45:17.837Z,78.08
2019-05-06T01:46:17.825Z,78.28
2019-05-06T01:47:17.813Z,78.28
2019-05-06T01:48:17.823Z,78.49
2019-05-06T01:49:17.795Z,79.01
2019-05-06T01:50:17.809Z,78.80
2019-05-06T01:51:17.769Z,79.63
2019-05-06T01:52:17.758Z,78.80
2019-05-06T01:53:17.749Z,79.01
2019-05-06T01:54:17.738Z,79.01
2019-05-06T01:55:17.749Z,79.15
2019-05-06T01:56:17.713Z,78.91
2019-05-06T01:57:17.702Z,79.01
2019-05-06T01:58:17.694Z,79.01
2019-05-06T01:59:17.681Z,78.70
2019-05-06T02:00:17.697Z,79.22
2019-05-06T02:01:17.663Z,78.08
2019-05-06T02:02:17.654Z,78.39
2019-05-06T02:03:17.640Z,79.01
2019-05-06T02:04:17.627Z,78.80
2019-05-06T02:05:17.641Z,78.59
2019-05-06T02:06:17.604Z,78.59
2019-05-06T02:07:17.596Z,78.94
2019-05-06T02:08:17.586Z,79.05
2019-05-06T02:09:17.577Z,78.94
2019-05-06T02:10:17.585Z,79.56
2019-05-06T02:11:17.551Z,79.66
2019-05-06T02:12:17.539Z,79.42
2019-05-06T02:13:17.530Z,79.66
2019-05-06T02:14:17.517Z,79.56
2019-05-06T02:15:17.532Z,79.15
2019-05-06T02:16:17.499Z,78.74
2019-05-06T02:17:17.491Z,79.22
2019-05-06T02:18:17.474Z,79.36
2019-05-06T02:19:17.464Z,79.22
2019-05-06T02:20:17.484Z,79.11
2019-05-06T02:21:17.448Z,78.91
2019-05-06T02:22:17.433Z,78.49
2019-05-06T02:23:17.426Z,78.53
2019-05-06T02:24:17.409Z,78.70
2019-05-06T02:25:17.422Z,78.94
2019-05-06T02:26:17.390Z,79.15
2019-05-06T02:27:17.380Z,78.94
2019-05-06T02:28:17.366Z,79.05
2019-05-06T02:29:17.355Z,78.91
2019-05-06T02:30:17.378Z,78.74
2019-05-06T02:31:17.337Z,79.91
2019-05-06T02:32:25.915Z,79.77
2019-05-06T02:33:18.313Z,80.22
2019-05-06T02:34:17.322Z,79.97
2019-05-06T02:35:17.317Z,79.66
2019-05-06T02:36:17.281Z,79.66
2019-05-06T02:37:17.267Z,79.87
2019-05-06T02:38:17.262Z,79.56
2019-05-06T02:39:17.249Z,79.77
2019-05-06T02:40:17.271Z,79.83
2019-05-06T02:41:17.227Z,80.08
2019-05-06T02:42:17.215Z,79.52
2019-05-06T02:43:17.204Z,79.77
2019-05-06T02:44:17.195Z,79.46
2019-05-06T02:45:17.215Z,79.66
2019-05-06T02:46:17.169Z,79.56
2019-05-06T02:47:17.158Z,79.66
2019-05-06T02:48:17.147Z,79.87
2019-05-06T02:49:17.134Z,79.77
2019-05-06T02:50:17.128Z,79.36
2019-05-06T02:51:17.140Z,79.66
2019-05-06T02:52:17.105Z,79.87
2019-05-06T02:53:17.094Z,79.87
2019-05-06T02:54:17.083Z,80.49
2019-05-06T02:55:17.076Z,80.08
2019-05-06T02:56:17.089Z,80.08
2019-05-06T02:57:17.048Z,79.77
2019-05-06T02:58:17.042Z,79.56
2019-05-06T02:59:17.026Z,80.39
2019-05-06T03:00:17.025Z,80.70
2019-05-06T03:01:17.029Z,80.87
2019-05-06T03:02:33.706Z,81.11
2019-05-06T03:03:17.983Z,81.21
2019-05-06T03:04:16.975Z,81.63
2019-05-06T03:05:16.961Z,81.73
2019-05-06T03:06:16.973Z,81.77
2019-05-06T03:07:16.939Z,80.43
2019-05-06T03:08:16.932Z,80.49
2019-05-06T03:09:16.919Z,81.21
2019-05-06T03:10:16.908Z,81.21
2019-05-06T03:11:16.926Z,81.56
2019-05-06T03:12:16.886Z,80.84
2019-05-06T03:13:16.877Z,80.94
2019-05-06T03:14:16.865Z,81.35
2019-05-06T03:15:17.126Z,81.52
2019-05-06T03:16:16.868Z,80.94
2019-05-06T03:17:16.831Z,81.05
2019-05-06T03:18:16.821Z,81.05
2019-05-06T03:19:16.811Z,81.01
2019-05-06T03:20:16.800Z,80.80
2019-05-06T03:21:16.794Z,80.90
2019-05-06T03:22:16.814Z,80.70
2019-05-06T03:23:16.769Z,81.01
2019-05-06T03:24:16.756Z,81.63
2019-05-06T03:25:16.749Z,81.32
2019-05-06T03:26:16.735Z,80.90
2019-05-06T03:27:16.747Z,80.49
2019-05-06T03:28:16.712Z,79.87
2019-05-06T03:29:16.701Z,79.87
2019-05-06T03:30:17.212Z,79.77
2019-05-06T03:31:17.194Z,79.87
2019-05-06T03:32:24.682Z,79.66
2019-05-06T03:33:40.343Z,80.29
2019-05-06T03:34:38.325Z,80.49
2019-05-06T03:35:33.126Z,80.60
2019-05-06T03:36:25.537Z,80.90
2019-05-06T03:37:17.778Z,80.60
2019-05-06T03:38:16.602Z,80.49
2019-05-06T03:39:16.591Z,80.29
2019-05-06T03:40:16.584Z,80.18
2019-05-06T03:41:16.568Z,80.39
2019-05-06T03:42:17.058Z,79.52
2019-05-06T03:43:16.569Z,79.66
2019-05-06T03:44:16.885Z,79.66
2019-05-06T03:45:16.529Z,79.87
2019-05-06T03:46:16.522Z,79.87
2019-05-06T03:47:16.530Z,79.97
2019-05-06T03:48:16.495Z,79.73
2019-05-06T03:49:16.482Z,79.87
2019-05-06T03:50:16.473Z,80.08
2019-05-06T03:51:16.458Z,79.77
2019-05-06T03:52:16.483Z,80.39
2019-05-06T03:53:16.436Z,79.97
2019-05-06T03:54:16.427Z,80.18
2019-05-06T03:55:16.416Z,80.39
2019-05-06T03:56:19.754Z,79.87
2019-05-06T03:57:16.421Z,79.97
2019-05-06T03:58:16.385Z,80.18
2019-05-06T03:59:16.374Z,79.77
2019-05-06T04:00:16.614Z,79.77
2019-05-06T04:01:16.354Z,80.49
2019-05-06T04:02:16.368Z,80.49
2019-05-06T04:03:16.332Z,80.49
2019-05-06T04:04:16.318Z,80.39
2019-05-06T04:05:16.310Z,80.39
2019-05-06T04:06:16.307Z,80.18
2019-05-06T04:07:16.310Z,80.18
2019-05-06T04:08:20.153Z,80.70
2019-05-06T04:09:16.272Z,80.29
2019-05-06T04:10:16.256Z,80.18
2019-05-06T04:11:16.242Z,80.18
2019-05-06T04:12:16.257Z,80.74
2019-05-06T04:13:16.222Z,80.43
2019-05-06T04:14:16.210Z,80.53
2019-05-06T04:15:16.199Z,80.94
2019-05-06T04:16:16.189Z,81.25
2019-05-06T04:17:16.177Z,81.35
2019-05-06T04:18:16.192Z,81.67
2019-05-06T04:19:16.154Z,81.46
2019-05-06T04:20:16.148Z,81.98
2019-05-06T04:21:16.678Z,81.73
2019-05-06T04:22:16.128Z,81.73
2019-05-06T04:23:16.135Z,81.11
2019-05-06T04:24:16.101Z,80.90
2019-05-06T04:25:16.090Z,80.70
2019-05-06T04:26:16.079Z,80.18
2019-05-06T04:27:16.074Z,80.39
2019-05-06T04:28:16.085Z,80.39
2019-05-06T04:29:16.045Z,80.39
2019-05-06T04:30:16.044Z,80.39
2019-05-06T04:31:16.023Z,80.60
2019-05-06T04:32:16.011Z,80.08
2019-05-06T04:33:17.403Z,80.70
2019-05-06T04:34:19.564Z,80.08
2019-05-06T04:35:15.984Z,80.08
2019-05-06T04:36:15.971Z,80.29
2019-05-06T04:37:15.961Z,80.70
2019-05-06T04:38:15.977Z,80.08
2019-05-06T04:39:15.939Z,80.39
2019-05-06T04:40:15.932Z,80.18
2019-05-06T04:41:15.912Z,79.97
2019-05-06T04:42:15.911Z,80.39
2019-05-06T04:43:15.917Z,80.39
2019-05-06T04:44:15.881Z,79.87
2019-05-06T04:45:17.370Z,80.60
2019-05-06T04:46:17.016Z,80.08
2019-05-06T04:47:15.852Z,80.08
2019-05-06T04:48:15.866Z,80.18
2019-05-06T04:49:15.832Z,80.60
2019-05-06T04:50:15.816Z,80.49
2019-05-06T04:51:15.810Z,80.60
2019-05-06T04:52:15.794Z,80.39
2019-05-06T04:53:15.784Z,80.29
2019-05-06T04:54:15.798Z,80.39
2019-05-06T04:55:15.759Z,80.18
2019-05-06T04:56:15.748Z,79.87
2019-05-06T04:57:15.737Z,79.87
2019-05-06T04:58:15.751Z,80.18
2019-05-06T04:59:15.713Z,79.25
2019-05-06T05:00:15.713Z,79.87
2019-05-06T05:01:15.998Z,79.87
2019-05-06T05:02:15.680Z,79.97
2019-05-06T05:03:15.676Z,79.73
2019-05-06T05:04:28.541Z,79.94
2019-05-06T05:05:16.647Z,79.73
2019-05-06T05:06:15.635Z,80.56
2019-05-06T05:07:15.627Z,80.32
2019-05-06T05:08:15.617Z,79.32
2019-05-06T05:09:17.418Z,79.11
2019-05-06T05:10:15.594Z,79.22
2019-05-06T05:11:15.598Z,79.22
2019-05-06T05:12:15.570Z,79.63
2019-05-06T05:13:15.561Z,79.63
2019-05-06T05:14:15.572Z,79.59
2019-05-06T05:15:15.536Z,78.70
2019-05-06T05:16:15.531Z,77.77
2019-05-06T05:17:15.521Z,78.39
2019-05-06T05:18:15.503Z,78.49
2019-05-06T05:19:15.521Z,78.08
2019-05-06T05:20:15.486Z,77.87
2019-05-06T05:21:15.471Z,77.56
2019-05-06T05:22:15.459Z,77.25
2019-05-06T05:23:15.469Z,77.77
2019-05-06T05:24:15.466Z,78.18
2019-05-06T05:25:15.426Z,78.18
2019-05-06T05:26:15.416Z,78.91
2019-05-06T05:27:15.405Z,77.87
2019-05-06T05:28:15.393Z,77.46
2019-05-06T05:29:15.405Z,77.46
2019-05-06T05:30:15.376Z,77.56
2019-05-06T05:31:15.359Z,77.87
2019-05-06T05:32:15.349Z,77.67
2019-05-06T05:33:15.337Z,77.46
2019-05-06T05:34:15.353Z,77.04
2019-05-06T05:35:15.314Z,77.22
2019-05-06T05:36:15.306Z,77.32
2019-05-06T05:37:15.293Z,77.73
2019-05-06T05:38:15.282Z,77.32
2019-05-06T05:39:15.296Z,77.42
2019-05-06T05:40:15.262Z,77.63
2019-05-06T05:41:15.247Z,77.73
2019-05-06T05:42:15.264Z,77.32
2019-05-06T05:43:15.227Z,76.25
2019-05-06T05:44:15.238Z,77.42
2019-05-06T05:45:15.205Z,76.50
2019-05-06T05:46:15.193Z,77.42
2019-05-06T05:47:15.194Z,77.39
2019-05-06T05:48:15.180Z,77.42
2019-05-06T05:49:18.125Z,77.08
2019-05-06T05:50:16.149Z,76.67
2019-05-06T05:51:15.139Z,76.18
2019-05-06T05:52:15.130Z,76.25
2019-05-06T05:53:15.117Z,76.15
2019-05-06T05:54:15.119Z,77.01
2019-05-06T05:55:15.122Z,77.49
2019-05-06T05:56:15.083Z,77.18
2019-05-06T05:57:15.075Z,77.18
2019-05-06T05:58:15.063Z,76.77
2019-05-06T05:59:15.056Z,76.15
2019-05-06T06:00:15.070Z,75.81
2019-05-06T06:01:15.030Z,75.29
2019-05-06T06:02:15.018Z,75.01
2019-05-06T06:03:15.010Z,75.74
2019-05-06T06:04:15.005Z,75.32
2019-05-06T06:05:15.010Z,75.63
2019-05-06T06:06:14.974Z,75.84
2019-05-06T06:07:14.962Z,75.70
2019-05-06T06:08:14.955Z,75.39
2019-05-06T06:09:14.949Z,75.70
2019-05-06T06:10:14.962Z,75.39
2019-05-06T06:11:14.920Z,74.88
2019-05-06T06:12:14.912Z,74.88
2019-05-06T06:13:14.897Z,74.36
2019-05-06T06:14:14.886Z,75.70
2019-05-06T06:15:14.903Z,74.88
2019-05-06T06:16:14.863Z,75.49
2019-05-06T06:17:14.853Z,75.29
2019-05-06T06:18:14.845Z,75.39
2019-05-06T06:19:14.832Z,75.60
2019-05-06T06:20:14.847Z,74.05
2019-05-06T06:21:21.233Z,74.05
2019-05-06T06:22:15.800Z,73.54
2019-05-06T06:23:14.788Z,73.95
2019-05-06T06:24:14.781Z,74.77
2019-05-06T06:25:14.796Z,73.85
2019-05-06T06:26:14.769Z,74.46
2019-05-06T06:27:14.745Z,73.95
2019-05-06T06:28:14.735Z,74.67
2019-05-06T06:29:14.723Z,75.39
2019-05-06T06:30:14.738Z,74.98
2019-05-06T06:31:14.701Z,75.09
2019-05-06T06:32:14.690Z,74.53
2019-05-06T06:33:14.679Z,75.05
2019-05-06T06:34:14.670Z,73.81
2019-05-06T06:35:14.889Z,73.60
2019-05-06T06:36:14.649Z,74.02
2019-05-06T06:37:14.638Z,73.71
2019-05-06T06:38:14.633Z,73.91
2019-05-06T06:39:14.614Z,73.50
2019-05-06T06:40:14.630Z,73.60
2019-05-06T06:41:14.595Z,73.36
2019-05-06T06:42:14.582Z,72.47
2019-05-06T06:43:14.570Z,73.30
2019-05-06T06:44:14.573Z,72.78
2019-05-06T06:45:14.568Z,73.09
2019-05-06T06:46:14.562Z,73.60
2019-05-06T06:47:14.529Z,73.50
2019-05-06T06:48:14.526Z,73.40
2019-05-06T06:49:14.507Z,72.47
2019-05-06T06:50:14.495Z,72.75
2019-05-06T06:51:14.510Z,72.37
2019-05-06T06:52:15.021Z,72.03
2019-05-06T06:53:14.462Z,72.33
2019-05-06T06:54:14.451Z,72.23
2019-05-06T06:55:14.443Z,71.41
2019-05-06T06:56:14.451Z,72.16
2019-05-06T06:57:14.419Z,71.82
2019-05-06T06:58:14.405Z,71.75
2019-05-06T06:59:14.395Z,72.33
2019-05-06T07:00:14.387Z,72.37
2019-05-06T07:01:14.399Z,73.16
2019-05-06T07:02:14.361Z,73.47
2019-05-06T07:03:14.350Z,73.26
2019-05-06T07:04:14.354Z,72.30
2019-05-06T07:05:24.326Z,71.78
2019-05-06T07:06:15.380Z,71.37
2019-05-06T07:07:14.312Z,71.78
2019-05-06T07:08:14.300Z,71.78
2019-05-06T07:09:14.284Z,71.27
2019-05-06T07:10:14.275Z,71.75
2019-05-06T07:11:14.286Z,71.24
2019-05-06T07:12:14.283Z,71.24
2019-05-06T07:13:14.243Z,70.83
2019-05-06T07:14:14.236Z,70.83
2019-05-06T07:15:14.220Z,69.46
2019-05-06T07:16:14.244Z,70.31
2019-05-06T07:17:14.197Z,68.46
2019-05-06T07:18:14.187Z,68.43
2019-05-06T07:19:14.172Z,68.98
2019-05-06T07:20:14.164Z,68.94
2019-05-06T07:21:14.177Z,69.04
2019-05-06T07:22:14.141Z,69.04
2019-05-06T07:23:14.131Z,68.02
2019-05-06T07:24:14.117Z,67.71
2019-05-06T07:25:14.106Z,68.12
2019-05-06T07:26:14.122Z,69.87
2019-05-06T07:27:14.086Z,69.46
2019-05-06T07:28:14.127Z,68.12
2019-05-06T07:29:23.080Z,68.02
2019-05-06T07:30:15.050Z,67.50
2019-05-06T07:31:21.212Z,68.12
2019-05-06T07:32:15.029Z,67.81
2019-05-06T07:33:14.017Z,67.91
2019-05-06T07:34:14.004Z,67.60
2019-05-06T07:35:13.994Z,67.91
2019-05-06T07:36:14.006Z,67.26
2019-05-06T07:37:13.980Z,66.96
2019-05-06T07:38:13.963Z,66.82
2019-05-06T07:39:15.245Z,66.75
2019-05-06T07:40:13.936Z,67.44
2019-05-06T07:41:15.102Z,67.23
2019-05-06T07:42:13.915Z,66.41
2019-05-06T07:43:13.903Z,66.10
2019-05-06T07:44:13.893Z,66.89
2019-05-06T07:45:13.879Z,66.58
2019-05-06T07:46:13.869Z,64.43
2019-05-06T07:47:15.773Z,65.14
2019-05-06T07:48:13.845Z,64.43
2019-05-06T07:49:13.836Z,65.35
2019-05-06T07:50:13.829Z,65.56
2019-05-06T07:51:13.813Z,65.35
2019-05-06T07:52:17.065Z,64.40
2019-05-06T07:53:13.788Z,65.42
2019-05-06T07:54:13.778Z,64.40
2019-05-06T07:55:13.768Z,63.98
2019-05-06T07:56:13.756Z,64.60
2019-05-06T07:57:13.770Z,63.89
2019-05-06T07:58:14.010Z,63.57
2019-05-06T07:59:13.721Z,63.98
2019-05-06T08:00:13.713Z,63.98
2019-05-06T08:01:13.929Z,64.50
2019-05-06T08:02:13.711Z,62.24
2019-05-06T08:03:14.194Z,61.93
2019-05-06T08:04:13.668Z,61.00
2019-05-06T08:05:13.653Z,61.00
2019-05-06T08:06:13.645Z,62.37
2019-05-06T08:07:13.657Z,63.81
2019-05-06T08:08:13.623Z,63.98
2019-05-06T08:09:13.610Z,63.37
2019-05-06T08:10:13.711Z,63.98
2019-05-06T08:11:13.586Z,62.24
2019-05-06T08:12:13.612Z,62.96
2019-05-06T08:13:13.564Z,63.27
2019-05-06T08:14:13.554Z,61.93
2019-05-06T08:15:13.590Z,62.48
2019-05-06T08:16:13.533Z,63.60
2019-05-06T08:17:13.547Z,64.09
2019-05-06T08:18:13.509Z,63.89
2019-05-06T08:19:13.500Z,62.55
2019-05-06T08:20:13.489Z,63.37
2019-05-06T08:21:13.474Z,62.96
2019-05-06T08:22:13.489Z,60.19
2019-05-06T08:23:13.453Z,59.88
2019-05-06T08:24:13.449Z,58.78
2019-05-06T08:25:13.431Z,59.47
2019-05-06T08:26:17.361Z,60.11
2019-05-06T08:27:13.412Z,59.80
2019-05-06T08:28:13.522Z,61.24
2019-05-06T08:29:15.964Z,61.76
2019-05-06T08:30:13.520Z,61.96
2019-05-06T08:31:13.375Z,62.37
2019-05-06T08:32:13.360Z,62.58
2019-05-06T08:33:13.367Z,62.16
2019-05-06T08:34:13.331Z,61.76
2019-05-06T08:35:13.493Z,62.27
2019-05-06T08:36:14.976Z,62.88
2019-05-06T08:37:13.297Z,62.88
2019-05-06T08:38:13.324Z,63.29
2019-05-06T08:39:13.281Z,62.78
2019-05-06T08:40:13.269Z,61.86
2019-05-06T08:41:13.255Z,63.60
2019-05-06T08:42:13.606Z,63.50
2019-05-06T08:43:13.302Z,62.68
2019-05-06T08:44:13.245Z,62.78
2019-05-06T08:45:13.215Z,62.99
2019-05-06T08:46:13.215Z,63.27
2019-05-06T08:47:13.402Z,62.65
2019-05-06T08:48:13.201Z,62.75
2019-05-06T08:49:13.195Z,63.37
2019-05-06T08:50:13.156Z,62.16
2019-05-06T08:51:13.168Z,62.27
2019-05-06T08:52:13.134Z,63.29
2019-05-06T08:53:13.879Z,63.50
2019-05-06T08:54:13.439Z,63.71
2019-05-06T08:55:13.097Z,64.12
2019-05-06T08:56:16.170Z,64.73
2019-05-06T08:57:13.075Z,64.32
2019-05-06T08:58:14.011Z,64.43
2019-05-06T08:59:14.025Z,64.22
2019-05-06T09:00:13.072Z,64.73
2019-05-06T09:01:13.032Z,64.70
2019-05-06T09:02:13.695Z,64.60
2019-05-06T09:03:14.290Z,64.60
2019-05-06T09:04:15.959Z,64.40
2019-05-06T09:05:13.010Z,64.09
2019-05-06T09:06:26.934Z,63.91
2019-05-06T09:07:13.968Z,64.01
2019-05-06T09:08:13.748Z,64.09
2019-05-06T09:09:13.227Z,64.12
2019-05-06T09:10:13.212Z,63.91
2019-05-06T09:11:12.924Z,64.01
2019-05-06T09:12:13.123Z,63.91
2019-05-06T09:13:12.897Z,64.43
2019-05-06T09:14:13.939Z,64.22
2019-05-06T09:15:12.908Z,64.73
2019-05-06T09:16:13.099Z,64.53
2019-05-06T09:17:12.854Z,65.56
2019-05-06T09:18:12.842Z,63.91
2019-05-06T09:19:13.092Z,63.94
2019-05-06T09:20:13.051Z,64.46
2019-05-06T09:21:12.813Z,64.56
2019-05-06T09:22:13.008Z,64.76
2019-05-06T09:23:12.789Z,64.56
2019-05-06T09:24:13.060Z,64.56
2019-05-06T09:25:12.992Z,64.46
2019-05-06T09:26:13.074Z,65.48
2019-05-06T09:27:12.745Z,64.46
2019-05-06T09:28:13.208Z,64.32
2019-05-06T09:29:12.926Z,63.40
2019-05-06T09:30:13.118Z,64.12
2019-05-06T09:31:12.735Z,64.43
2019-05-06T09:32:13.999Z,64.01
2019-05-06T09:33:12.970Z,64.43
2019-05-06T09:34:13.097Z,63.78
2019-05-06T09:35:13.165Z,63.47
2019-05-06T09:36:12.852Z,63.98
2019-05-06T09:37:13.606Z,63.68
2019-05-06T09:38:12.822Z,62.45
2019-05-06T09:39:13.058Z,62.21
2019-05-06T09:40:12.777Z,62.45
2019-05-06T09:41:12.598Z,62.14
2019-05-06T09:42:12.942Z,62.55
2019-05-06T09:43:13.194Z,62.73
2019-05-06T09:44:12.572Z,62.11
2019-05-06T09:45:12.653Z,61.70
2019-05-06T09:46:12.990Z,61.70
2019-05-06T09:47:12.778Z,62.01
2019-05-06T09:48:12.960Z,62.08
2019-05-06T09:49:12.827Z,61.26
2019-05-06T09:50:12.857Z,59.95
2019-05-06T09:51:13.092Z,60.67
2019-05-06T09:52:13.072Z,61.60
2019-05-06T09:53:13.154Z,60.98
2019-05-06T09:54:12.978Z,60.70
2019-05-06T09:55:12.842Z,61.72
2019-05-06T09:56:13.237Z,61.62
2019-05-06T09:57:12.945Z,61.93
2019-05-06T09:58:12.463Z,62.04
2019-05-06T09:59:12.910Z,61.93
2019-05-06T10:00:12.543Z,62.11
2019-05-06T10:01:13.087Z,61.90
2019-05-06T10:02:12.597Z,61.90
2019-05-06T10:03:12.365Z,61.90
2019-05-06T10:04:13.078Z,62.11
2019-05-06T10:05:12.347Z,62.01
2019-05-06T10:06:13.154Z,62.08
2019-05-06T10:07:12.304Z,61.67
2019-05-06T10:08:12.611Z,60.95
2019-05-06T10:09:15.874Z,60.72
2019-05-06T10:10:12.305Z,60.51
2019-05-06T10:11:12.254Z,60.00
2019-05-06T10:12:12.888Z,59.28
2019-05-06T10:13:12.813Z,58.46
2019-05-06T10:14:12.878Z,59.38
2019-05-06T10:15:12.706Z,58.95
2019-05-06T10:16:12.983Z,58.36
2019-05-06T10:17:13.162Z,58.67
2019-05-06T10:18:13.319Z,58.64
2019-05-06T10:19:13.166Z,59.69
2019-05-06T10:20:12.759Z,58.97
2019-05-06T10:21:12.562Z,58.23
2019-05-06T10:22:12.679Z,58.56
2019-05-06T10:23:12.122Z,59.77
2019-05-06T10:24:12.111Z,58.26
2019-05-06T10:25:12.268Z,59.05
2019-05-06T10:26:12.963Z,57.95
2019-05-06T10:27:12.364Z,58.64
2019-05-06T10:28:12.536Z,58.64
2019-05-06T10:29:12.829Z,58.54
2019-05-06T10:30:12.655Z,58.51
2019-05-06T10:31:12.723Z,59.53
2019-05-06T10:32:12.184Z,59.02
2019-05-06T10:33:12.008Z,59.71
2019-05-06T10:34:14.049Z,57.87
2019-05-06T10:35:13.099Z,57.97
2019-05-06T10:36:12.965Z,58.17
2019-05-06T10:37:18.666Z,56.84
2019-05-06T10:38:12.950Z,57.84
2019-05-06T10:39:12.655Z,57.10
2019-05-06T10:40:13.490Z,56.48
2019-05-06T10:41:13.027Z,57.58
2019-05-06T10:42:13.130Z,56.84
2019-05-06T10:43:11.897Z,56.53
2019-05-06T10:44:11.906Z,54.90
2019-05-06T10:45:12.393Z,54.39
2019-05-06T10:46:13.193Z,53.90
2019-05-06T10:47:12.216Z,55.74
2019-05-06T10:48:12.862Z,54.69
2019-05-06T10:49:13.210Z,55.62
2019-05-06T10:50:12.549Z,55.62
2019-05-06T10:51:13.529Z,56.40
2019-05-06T10:52:12.723Z,56.92
2019-05-06T10:53:13.508Z,54.67
2019-05-06T10:54:12.254Z,53.77
2019-05-06T10:55:12.295Z,54.18
2019-05-06T10:56:12.687Z,54.59
2019-05-06T10:57:12.508Z,54.41
2019-05-06T10:58:12.791Z,54.51
2019-05-06T10:59:12.999Z,54.33
2019-05-06T11:00:12.245Z,55.02
2019-05-06T11:01:12.514Z,54.61
2019-05-06T11:02:12.955Z,55.84
2019-05-06T11:03:14.745Z,55.00
2019-05-06T11:04:11.664Z,54.90
2019-05-06T11:05:11.651Z,54.72
2019-05-06T11:06:13.191Z,55.00
2019-05-06T11:07:12.416Z,56.15
2019-05-06T11:08:12.618Z,55.84
2019-05-06T11:09:13.503Z,55.64
2019-05-06T11:10:23.403Z,55.02
2019-05-06T11:11:20.095Z,55.23
2019-05-06T11:12:12.573Z,55.74
2019-05-06T11:13:12.842Z,54.31
2019-05-06T11:14:12.729Z,55.74
2019-05-06T11:15:12.444Z,55.77
2019-05-06T11:16:12.931Z,56.99
2019-05-06T11:17:12.495Z,54.36
2019-05-06T11:18:13.523Z,55.69
2019-05-06T11:19:13.297Z,55.90
2019-05-06T11:20:13.966Z,56.20
2019-05-06T11:21:12.748Z,57.64
2019-05-06T11:22:12.862Z,57.33
2019-05-06T11:23:11.477Z,58.15
2019-05-06T11:24:12.263Z,58.07
2019-05-06T11:25:12.312Z,57.94
2019-05-06T11:26:13.158Z,57.56
2019-05-06T11:27:25.309Z,56.33
2019-05-06T11:28:12.962Z,57.87
2019-05-06T11:29:12.471Z,58.48
2019-05-06T11:30:12.803Z,58.89
2019-05-06T11:31:13.916Z,58.69
2019-05-06T11:32:12.823Z,59.00
2019-05-06T11:33:13.047Z,59.20
2019-05-06T11:34:12.613Z,59.09
2019-05-06T11:35:12.323Z,58.58
2019-05-06T11:36:12.202Z,59.50
2019-05-06T11:37:12.047Z,58.38
2019-05-06T11:38:12.136Z,58.07
2019-05-06T11:39:14.063Z,58.69
2019-05-06T11:40:16.626Z,58.89
2019-05-06T11:41:13.168Z,59.30
2019-05-06T11:42:25.032Z,59.61
2019-05-06T11:43:12.248Z,60.33
2019-05-06T11:44:12.725Z,60.84
2019-05-06T11:45:12.196Z,59.71
2019-05-06T11:46:12.300Z,59.50
2019-05-06T11:47:12.505Z,60.02
2019-05-06T11:48:14.333Z,59.71
2019-05-06T11:49:12.491Z,58.79
2019-05-06T11:50:12.937Z,59.30
2019-05-06T11:51:12.779Z,59.68
2019-05-06T11:52:13.009Z,60.19
2019-05-06T11:53:12.503Z,59.99
2019-05-06T11:54:19.372Z,58.56
2019-05-06T11:55:12.612Z,59.38
2019-05-06T11:56:12.764Z,60.19
2019-05-06T11:57:12.420Z,59.68
2019-05-06T11:58:12.698Z,59.78
2019-05-06T11:59:12.975Z,59.27
2019-05-06T12:00:12.628Z,59.68
2019-05-06T12:01:13.306Z,59.20
2019-05-06T12:02:12.719Z,60.02
2019-05-06T12:03:12.748Z,60.22
2019-05-06T12:04:13.718Z,59.81
2019-05-06T12:05:10.984Z,59.50
2019-05-06T12:06:13.015Z,60.10
2019-05-06T12:07:15.237Z,61.01
2019-05-06T12:08:15.370Z,60.81
2019-05-06T12:09:16.311Z,58.76
2019-05-06T12:10:12.962Z,59.27
2019-05-06T12:11:12.521Z,59.89
2019-05-06T12:12:12.798Z,59.99
2019-05-06T12:13:12.253Z,59.27
2019-05-06T12:14:12.431Z,58.86
2019-05-06T12:15:12.599Z,59.55
2019-05-06T12:16:13.746Z,58.66
2019-05-06T12:17:12.801Z,59.38
2019-05-06T12:18:12.498Z,59.68
2019-05-06T12:19:12.924Z,58.56
2019-05-06T12:20:12.920Z,57.94
2019-05-06T12:21:13.348Z,58.76
2019-05-06T12:22:12.581Z,59.27
2019-05-06T12:23:10.781Z,57.94
2019-05-06T12:24:12.240Z,58.15
2019-05-06T12:25:14.385Z,57.84
2019-05-06T12:26:13.012Z,58.56
2019-05-06T12:27:12.678Z,59.38
2019-05-06T12:28:12.397Z,58.15
2019-05-06T12:29:12.598Z,58.25
2019-05-06T12:30:12.295Z,58.35
2019-05-06T12:31:12.692Z,58.04
2019-05-06T12:32:12.857Z,59.48
2019-05-06T12:33:12.819Z,59.78
2019-05-06T12:34:12.404Z,58.66
2019-05-06T12:35:12.481Z,58.84
2019-05-06T12:36:12.756Z,58.56
2019-05-06T12:37:12.106Z,58.97
2019-05-06T12:38:24.006Z,56.07
2019-05-06T12:39:16.014Z,55.77
2019-05-06T12:40:12.518Z,55.56
2019-05-06T12:41:10.595Z,56.61
2019-05-06T12:42:10.567Z,55.87
2019-05-06T12:43:12.815Z,55.97
2019-05-06T12:44:13.119Z,55.15
2019-05-06T12:45:12.916Z,54.95
2019-05-06T12:46:13.175Z,54.95
2019-05-06T12:47:12.951Z,54.33
2019-05-06T12:48:13.027Z,54.33
2019-05-06T12:49:12.688Z,54.85
2019-05-06T12:50:10.501Z,55.05
2019-05-06T12:51:10.468Z,55.05
2019-05-06T12:52:12.334Z,54.23